sensor_id;sensor_type;location;lat;lon;timestamp;temperature;humidity
4643;DHT22;2334;48.710;9.622;2023-04-25T00:00:53;8.50;99.90
4643;DHT22;2334;48.710;9.622;2023-04-25T00:03:20;8.40;99.90
4643;DHT22;2334;48.710;9.622;2023-04-25T00:05:49;8.40;99.90
4643;DHT22;2334;48.710;9.622;2023-04-25T00:08:17;8.50;99.90
4643;DHT22;2334;48.710;9.622;2023-04-25T00:10:44;8.50;99.90
4643;DHT22;2334;48.710;9.622;2023-04-25T00:13:11;8.40;99.90
4643;DHT22;2334;48.710;9.622;2023-04-25T00:15:37;8.40;99.90
4643;DHT22;2334;48.710;9.622;2023-04-25T00:18:07;8.50;99.90
4643;DHT22;2334;48.710;9.622;2023-04-25T00:20:35;8.50;99.90
4643;DHT22;2334;48.710;9.622;2023-04-25T00:23:04;8.50;99.90
4643;DHT22;2334;48.710;9.622;2023-04-25T00:25:31;8.50;99.90
4643;DHT22;2334;48.710;9.622;2023-04-25T00:27:58;8.50;99.90
4643;DHT22;2334;48.710;9.622;2023-04-25T00:30:25;8.40;99.90
4643;DHT22;2334;48.710;9.622;2023-04-25T00:32:52;8.50;99.90
4643;DHT22;2334;48.710;9.622;2023-04-25T00:35:19;8.40;99.90
4643;DHT22;2334;48.710;9.622;2023-04-25T00:37:46;8.30;99.90
4643;DHT22;2334;48.710;9.622;2023-04-25T00:40:14;8.30;99.90
4643;DHT22;2334;48.710;9.622;2023-04-25T00:42:41;8.30;99.90
4643;DHT22;2334;48.710;9.622;2023-04-25T00:45:09;8.30;99.90
4643;DHT22;2334;48.710;9.622;2023-04-25T00:47:40;8.40;99.90
4643;DHT22;2334;48.710;9.622;2023-04-25T00:50:08;8.40;99.90
4643;DHT22;2334;48.710;9.622;2023-04-25T00:52:35;8.40;99.90
4643;DHT22;2334;48.710;9.622;2023-04-25T00:55:02;8.40;99.90
4643;DHT22;2334;48.710;9.622;2023-04-25T00:57:30;8.40;99.90
4643;DHT22;2334;48.710;9.622;2023-04-25T00:59:58;8.40;99.90
4643;DHT22;2334;48.710;9.622;2023-04-25T01:02:25;8.40;99.90
4643;DHT22;2334;48.710;9.622;2023-04-25T01:04:52;8.40;99.90
4643;DHT22;2334;48.710;9.622;2023-04-25T01:07:19;8.40;99.90
4643;DHT22;2334;48.710;9.622;2023-04-25T01:09:46;8.40;99.90
4643;DHT22;2334;48.710;9.622;2023-04-25T01:12:13;8.40;99.90
4643;DHT22;2334;48.710;9.622;2023-04-25T01:14:42;8.40;99.90
4643;DHT22;2334;48.710;9.622;2023-04-25T01:17:09;8.50;99.90
4643;DHT22;2334;48.710;9.622;2023-04-25T01:19:36;8.40;99.90
4643;DHT22;2334;48.710;9.622;2023-04-25T01:22:05;8.30;99.90
4643;DHT22;2334;48.710;9.622;2023-04-25T01:24:32;8.40;99.90
4643;DHT22;2334;48.710;9.622;2023-04-25T01:27:00;8.40;99.90
4643;DHT22;2334;48.710;9.622;2023-04-25T01:29:28;8.40;99.90
4643;DHT22;2334;48.710;9.622;2023-04-25T01:31:55;8.40;99.90
4643;DHT22;2334;48.710;9.622;2023-04-25T01:34:24;8.50;99.90
4643;DHT22;2334;48.710;9.622;2023-04-25T01:36:51;8.50;99.90
4643;DHT22;2334;48.710;9.622;2023-04-25T01:39:20;8.50;99.90
4643;DHT22;2334;48.710;9.622;2023-04-25T01:41:48;8.50;99.90
4643;DHT22;2334;48.710;9.622;2023-04-25T01:44:15;8.40;99.90
4643;DHT22;2334;48.710;9.622;2023-04-25T01:46:42;8.40;99.90
4643;DHT22;2334;48.710;9.622;2023-04-25T01:49:09;8.50;99.90
4643;DHT22;2334;48.710;9.622;2023-04-25T01:51:36;8.50;99.90
4643;DHT22;2334;48.710;9.622;2023-04-25T01:54:04;8.50;99.90
4643;DHT22;2334;48.710;9.622;2023-04-25T01:56:32;8.50;99.90
4643;DHT22;2334;48.710;9.622;2023-04-25T01:58:59;8.50;99.90
4643;DHT22;2334;48.710;9.622;2023-04-25T02:01:26;8.50;99.90
4643;DHT22;2334;48.710;9.622;2023-04-25T02:03:53;8.50;99.90
4643;DHT22;2334;48.710;9.622;2023-04-25T02:06:20;8.40;99.90
4643;DHT22;2334;48.710;9.622;2023-04-25T02:08:47;8.40;99.90
4643;DHT22;2334;48.710;9.622;2023-04-25T02:11:14;8.50;99.90
4643;DHT22;2334;48.710;9.622;2023-04-25T02:13:42;8.50;99.90
4643;DHT22;2334;48.710;9.622;2023-04-25T02:16:09;8.50;99.90
4643;DHT22;2334;48.710;9.622;2023-04-25T02:18:35;8.40;99.90
4643;DHT22;2334;48.710;9.622;2023-04-25T02:21:04;8.40;99.90
4643;DHT22;2334;48.710;9.622;2023-04-25T02:23:31;8.30;99.90
4643;DHT22;2334;48.710;9.622;2023-04-25T02:25:58;8.30;99.90
4643;DHT22;2334;48.710;9.622;2023-04-25T02:28:25;8.30;99.90
4643;DHT22;2334;48.710;9.622;2023-04-25T02:30:53;8.20;99.90
4643;DHT22;2334;48.710;9.622;2023-04-25T02:33:20;8.20;99.90
4643;DHT22;2334;48.710;9.622;2023-04-25T02:35:47;8.20;99.90
4643;DHT22;2334;48.710;9.622;2023-04-25T02:38:14;8.20;99.90
4643;DHT22;2334;48.710;9.622;2023-04-25T02:40:41;8.20;99.90
4643;DHT22;2334;48.710;9.622;2023-04-25T02:43:08;8.20;99.90
4643;DHT22;2334;48.710;9.622;2023-04-25T02:45:35;8.10;99.90
4643;DHT22;2334;48.710;9.622;2023-04-25T02:48:05;8.10;99.90
4643;DHT22;2334;48.710;9.622;2023-04-25T02:50:32;8.10;99.90
4643;DHT22;2334;48.710;9.622;2023-04-25T02:52:58;8.10;99.90
4643;DHT22;2334;48.710;9.622;2023-04-25T02:55:25;8.00;99.90
4643;DHT22;2334;48.710;9.622;2023-04-25T02:57:52;8.00;99.90
4643;DHT22;2334;48.710;9.622;2023-04-25T03:00:20;8.00;99.90
4643;DHT22;2334;48.710;9.622;2023-04-25T03:02:48;8.00;99.90
4643;DHT22;2334;48.710;9.622;2023-04-25T03:05:16;8.00;99.90
4643;DHT22;2334;48.710;9.622;2023-04-25T03:07:43;8.00;99.90
4643;DHT22;2334;48.710;9.622;2023-04-25T03:10:11;8.00;99.90
4643;DHT22;2334;48.710;9.622;2023-04-25T03:12:38;8.00;99.90
4643;DHT22;2334;48.710;9.622;2023-04-25T03:15:05;7.90;99.90
4643;DHT22;2334;48.710;9.622;2023-04-25T03:17:32;7.90;99.90
4643;DHT22;2334;48.710;9.622;2023-04-25T03:19:59;7.80;99.90
4643;DHT22;2334;48.710;9.622;2023-04-25T03:22:27;7.60;99.90
4643;DHT22;2334;48.710;9.622;2023-04-25T03:24:54;7.60;99.90
4643;DHT22;2334;48.710;9.622;2023-04-25T03:27:21;7.60;99.90
4643;DHT22;2334;48.710;9.622;2023-04-25T03:29:48;7.60;99.90
4643;DHT22;2334;48.710;9.622;2023-04-25T03:32:15;7.60;99.90
4643;DHT22;2334;48.710;9.622;2023-04-25T03:34:42;7.50;99.90
4643;DHT22;2334;48.710;9.622;2023-04-25T03:37:08;7.50;99.90
4643;DHT22;2334;48.710;9.622;2023-04-25T03:39:37;7.50;99.90
4643;DHT22;2334;48.710;9.622;2023-04-25T03:42:04;7.40;99.90
4643;DHT22;2334;48.710;9.622;2023-04-25T03:44:31;7.50;99.90
4643;DHT22;2334;48.710;9.622;2023-04-25T03:46:58;7.50;99.90
4643;DHT22;2334;48.710;9.622;2023-04-25T03:49:25;7.50;99.90
4643;DHT22;2334;48.710;9.622;2023-04-25T03:51:51;7.60;99.90
4643;DHT22;2334;48.710;9.622;2023-04-25T03:54:18;7.60;99.90
4643;DHT22;2334;48.710;9.622;2023-04-25T03:56:47;7.60;99.90
4643;DHT22;2334;48.710;9.622;2023-04-25T03:59:14;7.60;99.90
4643;DHT22;2334;48.710;9.622;2023-04-25T04:01:40;7.60;99.90
4643;DHT22;2334;48.710;9.622;2023-04-25T04:04:07;7.60;99.90
4643;DHT22;2334;48.710;9.622;2023-04-25T04:06:34;7.60;99.90
4643;DHT22;2334;48.710;9.622;2023-04-25T04:09:02;7.60;99.90
4643;DHT22;2334;48.710;9.622;2023-04-25T04:11:29;7.60;99.90
4643;DHT22;2334;48.710;9.622;2023-04-25T04:13:58;7.60;99.90
4643;DHT22;2334;48.710;9.622;2023-04-25T04:16:25;7.60;99.90
4643;DHT22;2334;48.710;9.622;2023-04-25T04:18:52;7.60;99.90
4643;DHT22;2334;48.710;9.622;2023-04-25T04:21:19;7.60;99.90
4643;DHT22;2334;48.710;9.622;2023-04-25T04:23:46;7.60;99.90
4643;DHT22;2334;48.710;9.622;2023-04-25T04:26:13;7.60;99.90
4643;DHT22;2334;48.710;9.622;2023-04-25T04:28:41;7.60;99.90
4643;DHT22;2334;48.710;9.622;2023-04-25T04:31:10;7.70;99.90
4643;DHT22;2334;48.710;9.622;2023-04-25T04:33:37;7.70;99.90
4643;DHT22;2334;48.710;9.622;2023-04-25T04:36:05;7.70;99.90
4643;DHT22;2334;48.710;9.622;2023-04-25T04:38:33;7.60;99.90
4643;DHT22;2334;48.710;9.622;2023-04-25T04:41:00;7.60;99.90
4643;DHT22;2334;48.710;9.622;2023-04-25T04:43:28;7.60;99.90
4643;DHT22;2334;48.710;9.622;2023-04-25T04:45:55;7.60;99.90
4643;DHT22;2334;48.710;9.622;2023-04-25T04:48:24;7.70;99.90
4643;DHT22;2334;48.710;9.622;2023-04-25T04:50:51;7.70;99.90
4643;DHT22;2334;48.710;9.622;2023-04-25T04:53:18;7.70;99.90
4643;DHT22;2334;48.710;9.622;2023-04-25T04:55:45;7.70;99.90
4643;DHT22;2334;48.710;9.622;2023-04-25T04:58:11;7.70;99.90
4643;DHT22;2334;48.710;9.622;2023-04-25T05:00:38;7.80;99.90
4643;DHT22;2334;48.710;9.622;2023-04-25T05:03:05;7.80;99.90
4643;DHT22;2334;48.710;9.622;2023-04-25T05:05:34;7.80;99.90
4643;DHT22;2334;48.710;9.622;2023-04-25T05:08:00;7.90;99.90
4643;DHT22;2334;48.710;9.622;2023-04-25T05:10:27;7.90;99.90
4643;DHT22;2334;48.710;9.622;2023-04-25T05:12:54;7.90;99.90
4643;DHT22;2334;48.710;9.622;2023-04-25T05:15:21;7.90;99.90
4643;DHT22;2334;48.710;9.622;2023-04-25T05:17:48;7.90;99.90
4643;DHT22;2334;48.710;9.622;2023-04-25T05:20:15;7.90;99.90
4643;DHT22;2334;48.710;9.622;2023-04-25T05:22:45;8.00;99.90
4643;DHT22;2334;48.710;9.622;2023-04-25T05:25:12;7.90;99.90
4643;DHT22;2334;48.710;9.622;2023-04-25T05:27:39;8.00;99.90
4643;DHT22;2334;48.710;9.622;2023-04-25T05:30:06;8.00;99.90
4643;DHT22;2334;48.710;9.622;2023-04-25T05:32:34;8.00;99.90
4643;DHT22;2334;48.710;9.622;2023-04-25T05:35:01;8.00;99.90
4643;DHT22;2334;48.710;9.622;2023-04-25T05:37:28;8.10;99.90
4643;DHT22;2334;48.710;9.622;2023-04-25T05:39:57;8.10;99.90
4643;DHT22;2334;48.710;9.622;2023-04-25T05:42:24;8.10;99.90
4643;DHT22;2334;48.710;9.622;2023-04-25T05:44:51;8.10;99.90
4643;DHT22;2334;48.710;9.622;2023-04-25T05:47:17;8.10;99.90
4643;DHT22;2334;48.710;9.622;2023-04-25T05:49:44;8.10;99.90
4643;DHT22;2334;48.710;9.622;2023-04-25T05:52:11;8.10;99.90
4643;DHT22;2334;48.710;9.622;2023-04-25T05:54:38;8.20;99.90
4643;DHT22;2334;48.710;9.622;2023-04-25T05:57:06;8.20;99.90
4643;DHT22;2334;48.710;9.622;2023-04-25T05:59:33;8.20;99.90
4643;DHT22;2334;48.710;9.622;2023-04-25T06:02:00;8.30;99.90
4643;DHT22;2334;48.710;9.622;2023-04-25T06:04:27;8.20;99.90
4643;DHT22;2334;48.710;9.622;2023-04-25T06:06:54;8.30;99.90
4643;DHT22;2334;48.710;9.622;2023-04-25T06:09:21;8.30;99.90
4643;DHT22;2334;48.710;9.622;2023-04-25T06:11:47;8.30;99.90
4643;DHT22;2334;48.710;9.622;2023-04-25T06:14:16;8.30;99.90
4643;DHT22;2334;48.710;9.622;2023-04-25T06:16:42;8.30;99.90
4643;DHT22;2334;48.710;9.622;2023-04-25T06:19:09;8.30;99.90
4643;DHT22;2334;48.710;9.622;2023-04-25T06:21:36;8.40;99.90
4643;DHT22;2334;48.710;9.622;2023-04-25T06:24:04;8.40;99.90
4643;DHT22;2334;48.710;9.622;2023-04-25T06:26:30;8.40;99.90
4643;DHT22;2334;48.710;9.622;2023-04-25T06:28:57;8.50;99.90
4643;DHT22;2334;48.710;9.622;2023-04-25T06:31:26;8.50;99.90
4643;DHT22;2334;48.710;9.622;2023-04-25T06:33:54;8.60;99.90
4643;DHT22;2334;48.710;9.622;2023-04-25T06:36:21;8.80;99.90
4643;DHT22;2334;48.710;9.622;2023-04-25T06:38:50;9.00;99.90
4643;DHT22;2334;48.710;9.622;2023-04-25T06:41:17;9.00;99.90
4643;DHT22;2334;48.710;9.622;2023-04-25T06:43:44;9.10;99.90
4643;DHT22;2334;48.710;9.622;2023-04-25T06:46:11;9.20;99.90
4643;DHT22;2334;48.710;9.622;2023-04-25T06:48:39;9.30;99.90
4643;DHT22;2334;48.710;9.622;2023-04-25T06:51:06;9.40;99.90
4643;DHT22;2334;48.710;9.622;2023-04-25T06:53:33;9.50;99.90
4643;DHT22;2334;48.710;9.622;2023-04-25T06:56:00;9.70;99.90
4643;DHT22;2334;48.710;9.622;2023-04-25T06:58:26;9.70;99.90
4643;DHT22;2334;48.710;9.622;2023-04-25T07:00:53;9.90;99.90
4643;DHT22;2334;48.710;9.622;2023-04-25T07:03:20;10.00;99.90
4643;DHT22;2334;48.710;9.622;2023-04-25T07:05:48;10.10;99.90
4643;DHT22;2334;48.710;9.622;2023-04-25T07:08:15;10.40;99.90
4643;DHT22;2334;48.710;9.622;2023-04-25T07:10:42;10.30;99.90
4643;DHT22;2334;48.710;9.622;2023-04-25T07:13:11;10.10;99.90
4643;DHT22;2334;48.710;9.622;2023-04-25T07:15:38;10.00;99.90
4643;DHT22;2334;48.710;9.622;2023-04-25T07:18:05;9.90;99.90
4643;DHT22;2334;48.710;9.622;2023-04-25T07:20:32;10.10;99.90
4643;DHT22;2334;48.710;9.622;2023-04-25T07:23:00;10.00;99.90
4643;DHT22;2334;48.710;9.622;2023-04-25T07:25:27;9.90;99.90
4643;DHT22;2334;48.710;9.622;2023-04-25T07:27:54;9.80;99.90
4643;DHT22;2334;48.710;9.622;2023-04-25T07:30:21;9.80;99.90
4643;DHT22;2334;48.710;9.622;2023-04-25T07:32:48;9.70;99.90
4643;DHT22;2334;48.710;9.622;2023-04-25T07:35:15;9.70;99.90
4643;DHT22;2334;48.710;9.622;2023-04-25T07:37:43;9.70;99.90
4643;DHT22;2334;48.710;9.622;2023-04-25T07:40:11;9.80;99.90
4643;DHT22;2334;48.710;9.622;2023-04-25T07:42:38;9.60;99.90
4643;DHT22;2334;48.710;9.622;2023-04-25T07:45:06;9.60;99.90
4643;DHT22;2334;48.710;9.622;2023-04-25T07:47:34;9.50;99.90
4643;DHT22;2334;48.710;9.622;2023-04-25T07:50:02;9.50;99.90
4643;DHT22;2334;48.710;9.622;2023-04-25T07:52:29;9.50;99.90
4643;DHT22;2334;48.710;9.622;2023-04-25T07:54:56;9.60;99.90
4643;DHT22;2334;48.710;9.622;2023-04-25T07:57:25;9.50;99.90
4643;DHT22;2334;48.710;9.622;2023-04-25T07:59:52;9.50;99.90
4643;DHT22;2334;48.710;9.622;2023-04-25T08:02:19;9.50;99.90
4643;DHT22;2334;48.710;9.622;2023-04-25T08:04:46;9.30;99.90
4643;DHT22;2334;48.710;9.622;2023-04-25T08:07:15;9.40;99.90
4643;DHT22;2334;48.710;9.622;2023-04-25T08:09:42;9.30;99.90
4643;DHT22;2334;48.710;9.622;2023-04-25T08:12:08;9.40;99.90
4643;DHT22;2334;48.710;9.622;2023-04-25T08:14:37;9.30;99.90
4643;DHT22;2334;48.710;9.622;2023-04-25T08:17:05;9.40;99.90
4643;DHT22;2334;48.710;9.622;2023-04-25T08:19:32;9.40;99.90
4643;DHT22;2334;48.710;9.622;2023-04-25T08:21:59;9.30;99.90
4643;DHT22;2334;48.710;9.622;2023-04-25T08:24:26;9.10;99.90
4643;DHT22;2334;48.710;9.622;2023-04-25T08:26:52;9.00;99.90
4643;DHT22;2334;48.710;9.622;2023-04-25T08:29:20;9.00;99.90
4643;DHT22;2334;48.710;9.622;2023-04-25T08:31:50;8.90;99.90
4643;DHT22;2334;48.710;9.622;2023-04-25T08:34:18;8.80;99.90
4643;DHT22;2334;48.710;9.622;2023-04-25T08:36:45;8.80;99.90
4643;DHT22;2334;48.710;9.622;2023-04-25T08:39:12;8.70;99.90
4643;DHT22;2334;48.710;9.622;2023-04-25T08:41:40;8.70;99.90
4643;DHT22;2334;48.710;9.622;2023-04-25T08:44:10;8.60;99.90
4643;DHT22;2334;48.710;9.622;2023-04-25T08:46:38;8.40;99.90
4643;DHT22;2334;48.710;9.622;2023-04-25T08:49:08;8.40;99.90
4643;DHT22;2334;48.710;9.622;2023-04-25T08:51:45;8.40;99.90
4643;DHT22;2334;48.710;9.622;2023-04-25T08:54:14;8.40;99.90
4643;DHT22;2334;48.710;9.622;2023-04-25T08:56:44;8.40;99.90
4643;DHT22;2334;48.710;9.622;2023-04-25T08:59:11;8.40;99.90
4643;DHT22;2334;48.710;9.622;2023-04-25T09:01:39;8.40;99.90
4643;DHT22;2334;48.710;9.622;2023-04-25T09:04:07;8.40;99.90
4643;DHT22;2334;48.710;9.622;2023-04-25T09:06:34;8.40;99.90
4643;DHT22;2334;48.710;9.622;2023-04-25T09:09:06;8.40;99.90
4643;DHT22;2334;48.710;9.622;2023-04-25T09:11:33;8.40;99.90
4643;DHT22;2334;48.710;9.622;2023-04-25T09:14:14;8.40;99.90
4643;DHT22;2334;48.710;9.622;2023-04-25T09:16:58;8.50;99.90
4643;DHT22;2334;48.710;9.622;2023-04-25T09:19:28;8.60;99.90
4643;DHT22;2334;48.710;9.622;2023-04-25T09:21:56;8.50;99.90
4643;DHT22;2334;48.710;9.622;2023-04-25T09:24:31;8.50;99.90
4643;DHT22;2334;48.710;9.622;2023-04-25T09:26:58;8.30;99.90
4643;DHT22;2334;48.710;9.622;2023-04-25T09:29:30;8.30;99.90
4643;DHT22;2334;48.710;9.622;2023-04-25T09:32:11;8.30;99.90
4643;DHT22;2334;48.710;9.622;2023-04-25T09:34:41;8.30;99.90
4643;DHT22;2334;48.710;9.622;2023-04-25T09:37:09;8.30;99.90
4643;DHT22;2334;48.710;9.622;2023-04-25T09:39:37;8.20;99.90
4643;DHT22;2334;48.710;9.622;2023-04-25T09:42:04;8.30;99.90
4643;DHT22;2334;48.710;9.622;2023-04-25T09:44:31;8.40;99.90
4643;DHT22;2334;48.710;9.622;2023-04-25T09:46:58;8.40;99.90
4643;DHT22;2334;48.710;9.622;2023-04-25T09:49:25;8.40;99.90
4643;DHT22;2334;48.710;9.622;2023-04-25T09:51:58;8.30;99.90
4643;DHT22;2334;48.710;9.622;2023-04-25T09:54:26;8.30;99.90
4643;DHT22;2334;48.710;9.622;2023-04-25T09:56:53;8.10;99.90
4643;DHT22;2334;48.710;9.622;2023-04-25T09:59:21;7.90;99.90
4643;DHT22;2334;48.710;9.622;2023-04-25T10:01:49;7.90;99.90
4643;DHT22;2334;48.710;9.622;2023-04-25T10:04:19;8.00;99.90
4643;DHT22;2334;48.710;9.622;2023-04-25T10:06:49;8.00;99.90
4643;DHT22;2334;48.710;9.622;2023-04-25T10:09:19;8.10;99.90
4643;DHT22;2334;48.710;9.622;2023-04-25T10:11:47;8.10;99.90
4643;DHT22;2334;48.710;9.622;2023-04-25T10:14:14;8.10;99.90
4643;DHT22;2334;48.710;9.622;2023-04-25T10:16:42;8.10;99.90
4643;DHT22;2334;48.710;9.622;2023-04-25T10:19:10;8.10;99.90
4643;DHT22;2334;48.710;9.622;2023-04-25T10:21:44;8.30;99.90
4643;DHT22;2334;48.710;9.622;2023-04-25T10:24:13;8.40;99.90
4643;DHT22;2334;48.710;9.622;2023-04-25T10:26:41;8.40;99.90
4643;DHT22;2334;48.710;9.622;2023-04-25T10:29:09;8.40;99.90
4643;DHT22;2334;48.710;9.622;2023-04-25T10:31:45;8.40;99.90
4643;DHT22;2334;48.710;9.622;2023-04-25T10:34:12;8.20;99.90
4643;DHT22;2334;48.710;9.622;2023-04-25T10:36:39;8.20;99.90
4643;DHT22;2334;48.710;9.622;2023-04-25T10:39:07;8.30;99.90
4643;DHT22;2334;48.710;9.622;2023-04-25T10:41:47;8.30;99.90
4643;DHT22;2334;48.710;9.622;2023-04-25T10:44:14;8.10;99.90
4643;DHT22;2334;48.710;9.622;2023-04-25T10:46:44;8.20;99.90
4643;DHT22;2334;48.710;9.622;2023-04-25T10:49:28;8.10;99.90
4643;DHT22;2334;48.710;9.622;2023-04-25T10:52:12;8.10;99.90
4643;DHT22;2334;48.710;9.622;2023-04-25T10:54:41;7.90;99.90
4643;DHT22;2334;48.710;9.622;2023-04-25T10:57:31;7.90;99.90
4643;DHT22;2334;48.710;9.622;2023-04-25T11:00:00;8.00;99.90
4643;DHT22;2334;48.710;9.622;2023-04-25T11:02:31;7.70;99.90
4643;DHT22;2334;48.710;9.622;2023-04-25T11:04:59;7.70;99.90
4643;DHT22;2334;48.710;9.622;2023-04-25T11:07:32;7.60;99.90
4643;DHT22;2334;48.710;9.622;2023-04-25T11:10:02;7.60;99.90
4643;DHT22;2334;48.710;9.622;2023-04-25T11:12:32;7.60;99.90
4643;DHT22;2334;48.710;9.622;2023-04-25T11:14:59;7.70;99.90
4643;DHT22;2334;48.710;9.622;2023-04-25T11:17:28;7.70;99.90
4643;DHT22;2334;48.710;9.622;2023-04-25T11:19:54;7.80;99.90
4643;DHT22;2334;48.710;9.622;2023-04-25T11:22:23;7.70;99.90
4643;DHT22;2334;48.710;9.622;2023-04-25T11:24:49;7.70;99.90
4643;DHT22;2334;48.710;9.622;2023-04-25T11:27:17;7.80;99.90
4643;DHT22;2334;48.710;9.622;2023-04-25T11:29:45;7.90;99.90
4643;DHT22;2334;48.710;9.622;2023-04-25T11:32:15;7.60;99.90
4643;DHT22;2334;48.710;9.622;2023-04-25T11:34:43;7.70;99.90
4643;DHT22;2334;48.710;9.622;2023-04-25T11:37:11;7.70;99.90
4643;DHT22;2334;48.710;9.622;2023-04-25T11:39:43;7.60;99.90
4643;DHT22;2334;48.710;9.622;2023-04-25T11:42:11;7.20;99.90
4643;DHT22;2334;48.710;9.622;2023-04-25T11:44:38;7.10;99.90
4643;DHT22;2334;48.710;9.622;2023-04-25T11:47:07;7.10;99.90
4643;DHT22;2334;48.710;9.622;2023-04-25T11:49:35;7.10;99.90
4643;DHT22;2334;48.710;9.622;2023-04-25T11:52:02;7.20;99.90
4643;DHT22;2334;48.710;9.622;2023-04-25T11:54:29;7.20;99.90
4643;DHT22;2334;48.710;9.622;2023-04-25T11:56:56;7.30;99.90
4643;DHT22;2334;48.710;9.622;2023-04-25T11:59:24;7.30;99.90
4643;DHT22;2334;48.710;9.622;2023-04-25T12:01:52;7.30;99.90
4643;DHT22;2334;48.710;9.622;2023-04-25T12:04:21;7.30;99.90
4643;DHT22;2334;48.710;9.622;2023-04-25T12:06:50;7.20;99.90
4643;DHT22;2334;48.710;9.622;2023-04-25T12:09:19;7.30;99.90
4643;DHT22;2334;48.710;9.622;2023-04-25T12:11:48;7.40;99.90
4643;DHT22;2334;48.710;9.622;2023-04-25T12:14:24;7.30;99.90
4643;DHT22;2334;48.710;9.622;2023-04-25T12:16:51;7.30;99.90
4643;DHT22;2334;48.710;9.622;2023-04-25T12:19:22;7.40;99.90
4643;DHT22;2334;48.710;9.622;2023-04-25T12:21:50;7.40;99.90
4643;DHT22;2334;48.710;9.622;2023-04-25T12:24:22;7.50;99.90
4643;DHT22;2334;48.710;9.622;2023-04-25T12:26:52;7.60;99.90
4643;DHT22;2334;48.710;9.622;2023-04-25T12:29:20;7.70;99.90
4643;DHT22;2334;48.710;9.622;2023-04-25T12:31:47;7.70;99.90
4643;DHT22;2334;48.710;9.622;2023-04-25T12:34:14;7.60;99.90
4643;DHT22;2334;48.710;9.622;2023-04-25T12:36:44;7.70;99.90
4643;DHT22;2334;48.710;9.622;2023-04-25T12:39:15;7.80;99.90
4643;DHT22;2334;48.710;9.622;2023-04-25T12:41:42;7.90;99.90
4643;DHT22;2334;48.710;9.622;2023-04-25T12:44:09;7.90;99.90
4643;DHT22;2334;48.710;9.622;2023-04-25T12:46:36;8.10;99.90
4643;DHT22;2334;48.710;9.622;2023-04-25T12:49:03;8.00;99.90
4643;DHT22;2334;48.710;9.622;2023-04-25T12:51:31;8.10;99.90
4643;DHT22;2334;48.710;9.622;2023-04-25T12:54:00;8.20;99.90
4643;DHT22;2334;48.710;9.622;2023-04-25T12:56:27;8.50;99.90
4643;DHT22;2334;48.710;9.622;2023-04-25T12:58:54;8.70;99.90
4643;DHT22;2334;48.710;9.622;2023-04-25T13:01:21;8.80;99.90
4643;DHT22;2334;48.710;9.622;2023-04-25T13:03:49;8.90;99.90
4643;DHT22;2334;48.710;9.622;2023-04-25T13:06:17;9.10;99.90
4643;DHT22;2334;48.710;9.622;2023-04-25T13:08:44;8.80;99.90
4643;DHT22;2334;48.710;9.622;2023-04-25T13:11:13;8.80;99.90
4643;DHT22;2334;48.710;9.622;2023-04-25T13:13:41;8.60;99.90
4643;DHT22;2334;48.710;9.622;2023-04-25T13:16:08;8.50;99.90
4643;DHT22;2334;48.710;9.622;2023-04-25T13:18:35;8.60;99.90
4643;DHT22;2334;48.710;9.622;2023-04-25T13:21:03;8.70;99.90
4643;DHT22;2334;48.710;9.622;2023-04-25T13:23:30;8.90;99.90
4643;DHT22;2334;48.710;9.622;2023-04-25T13:25:57;9.00;99.90
4643;DHT22;2334;48.710;9.622;2023-04-25T13:28:25;9.00;99.90
4643;DHT22;2334;48.710;9.622;2023-04-25T13:30:52;9.00;99.90
4643;DHT22;2334;48.710;9.622;2023-04-25T13:33:19;9.00;99.90
4643;DHT22;2334;48.710;9.622;2023-04-25T13:35:47;9.00;99.90
4643;DHT22;2334;48.710;9.622;2023-04-25T13:38:20;9.00;99.90
4643;DHT22;2334;48.710;9.622;2023-04-25T13:40:47;9.00;99.90
4643;DHT22;2334;48.710;9.622;2023-04-25T13:43:14;8.90;99.90
4643;DHT22;2334;48.710;9.622;2023-04-25T13:45:42;9.00;99.90
4643;DHT22;2334;48.710;9.622;2023-04-25T13:48:09;9.00;99.90
4643;DHT22;2334;48.710;9.622;2023-04-25T13:50:36;9.00;99.90
4643;DHT22;2334;48.710;9.622;2023-04-25T13:53:03;9.00;99.90
4643;DHT22;2334;48.710;9.622;2023-04-25T13:55:30;9.00;99.90
4643;DHT22;2334;48.710;9.622;2023-04-25T13:57:57;9.30;99.90
4643;DHT22;2334;48.710;9.622;2023-04-25T14:00:24;9.90;99.90
4643;DHT22;2334;48.710;9.622;2023-04-25T14:02:52;10.10;99.90
4643;DHT22;2334;48.710;9.622;2023-04-25T14:05:19;10.50;99.90
4643;DHT22;2334;48.710;9.622;2023-04-25T14:07:46;10.30;99.90
4643;DHT22;2334;48.710;9.622;2023-04-25T14:10:13;10.60;99.90
4643;DHT22;2334;48.710;9.622;2023-04-25T14:12:40;10.40;99.90
4643;DHT22;2334;48.710;9.622;2023-04-25T14:15:07;10.50;99.90
4643;DHT22;2334;48.710;9.622;2023-04-25T14:17:34;10.10;99.90
4643;DHT22;2334;48.710;9.622;2023-04-25T14:20:02;9.90;99.90
4643;DHT22;2334;48.710;9.622;2023-04-25T14:22:31;9.70;99.90
4643;DHT22;2334;48.710;9.622;2023-04-25T14:24:58;9.70;99.90
4643;DHT22;2334;48.710;9.622;2023-04-25T14:27:25;9.50;99.90
4643;DHT22;2334;48.710;9.622;2023-04-25T14:29:52;9.60;99.90
4643;DHT22;2334;48.710;9.622;2023-04-25T14:32:19;9.70;99.90
4643;DHT22;2334;48.710;9.622;2023-04-25T14:34:46;9.80;99.90
4643;DHT22;2334;48.710;9.622;2023-04-25T14:37:15;9.90;99.90
4643;DHT22;2334;48.710;9.622;2023-04-25T14:39:42;10.30;99.90
4643;DHT22;2334;48.710;9.622;2023-04-25T14:42:09;10.30;99.90
4643;DHT22;2334;48.710;9.622;2023-04-25T14:44:42;10.20;99.90
4643;DHT22;2334;48.710;9.622;2023-04-25T14:47:09;10.20;99.90
4643;DHT22;2334;48.710;9.622;2023-04-25T14:49:36;9.80;99.90
4643;DHT22;2334;48.710;9.622;2023-04-25T14:52:03;10.00;99.90
4643;DHT22;2334;48.710;9.622;2023-04-25T14:54:31;9.70;99.90
4643;DHT22;2334;48.710;9.622;2023-04-25T14:56:58;9.80;99.90
4643;DHT22;2334;48.710;9.622;2023-04-25T14:59:26;9.70;99.90
4643;DHT22;2334;48.710;9.622;2023-04-25T15:01:53;9.80;99.90
4643;DHT22;2334;48.710;9.622;2023-04-25T15:04:20;9.80;99.90
4643;DHT22;2334;48.710;9.622;2023-04-25T15:06:47;9.90;99.90
4643;DHT22;2334;48.710;9.622;2023-04-25T15:09:14;9.70;99.90
4643;DHT22;2334;48.710;9.622;2023-04-25T15:11:44;9.80;99.90
4643;DHT22;2334;48.710;9.622;2023-04-25T15:14:11;9.80;99.90
4643;DHT22;2334;48.710;9.622;2023-04-25T15:16:37;10.00;99.90
4643;DHT22;2334;48.710;9.622;2023-04-25T15:19:05;10.30;99.90
4643;DHT22;2334;48.710;9.622;2023-04-25T15:21:32;10.30;99.90
4643;DHT22;2334;48.710;9.622;2023-04-25T15:23:59;10.50;99.90
4643;DHT22;2334;48.710;9.622;2023-04-25T15:26:27;11.20;99.90
4643;DHT22;2334;48.710;9.622;2023-04-25T15:28:55;11.30;99.90
4643;DHT22;2334;48.710;9.622;2023-04-25T15:31:22;11.20;99.90
4643;DHT22;2334;48.710;9.622;2023-04-25T15:33:49;11.00;99.90
4643;DHT22;2334;48.710;9.622;2023-04-25T15:36:16;10.90;99.90
4643;DHT22;2334;48.710;9.622;2023-04-25T15:38:43;10.60;99.90
4643;DHT22;2334;48.710;9.622;2023-04-25T15:41:12;10.60;99.90
4643;DHT22;2334;48.710;9.622;2023-04-25T15:43:38;10.40;99.90
4643;DHT22;2334;48.710;9.622;2023-04-25T15:46:07;10.30;99.90
4643;DHT22;2334;48.710;9.622;2023-04-25T15:48:34;10.40;99.90
4643;DHT22;2334;48.710;9.622;2023-04-25T15:51:00;10.40;99.90
4643;DHT22;2334;48.710;9.622;2023-04-25T15:53:27;10.20;99.90
4643;DHT22;2334;48.710;9.622;2023-04-25T15:55:54;10.20;99.90
4643;DHT22;2334;48.710;9.622;2023-04-25T15:58:21;10.20;99.90
4643;DHT22;2334;48.710;9.622;2023-04-25T16:00:48;10.10;99.90
4643;DHT22;2334;48.710;9.622;2023-04-25T16:03:17;10.00;99.90
4643;DHT22;2334;48.710;9.622;2023-04-25T16:05:44;10.20;99.90
4643;DHT22;2334;48.710;9.622;2023-04-25T16:08:11;11.40;99.90
4643;DHT22;2334;48.710;9.622;2023-04-25T16:10:38;12.40;99.90
4643;DHT22;2334;48.710;9.622;2023-04-25T16:13:05;12.40;99.90
4643;DHT22;2334;48.710;9.622;2023-04-25T16:15:32;11.80;99.90
4643;DHT22;2334;48.710;9.622;2023-04-25T16:18:00;11.60;99.90
4643;DHT22;2334;48.710;9.622;2023-04-25T16:20:28;11.20;99.90